Concho Valley, Arizona
Current Conditions -  °F | °C
As of 8:54 AM on Friday 24 Oct 2014 (Local Time) from KSJN Reporting Station
Clear Clear  
Wind Chill: 55°   Ceiling: Unl
Heat Index: 55°   Visibility: 10mi
Dew Point: 38°   Wind: 0mph
Humidity: 53%   Direction: NA
Pressure: 30.36"   Gusts: NA
Location:  34.4334°N, 109.652°W
Report Text: KSJN 241554Z AUTO 00000KT 10SM CLR 13/03 A3036 RMK AO2 SLP225 T01280033
Loading
Personal Weather Stations






























Interactive Weather Map
Tropical Storm Tracking
New forecast layout! Learn more

10-Day Weather Forecast

Advertisements
Track Severe Weather on mobile